sensor_id;sensor_type;location;lat;lon;timestamp;pressure;altitude;pressure_sealevel;temperature;humidity
45789;BME280;31492;54.856;26.318;2023-02-17T19:01:30;1005;;;24.8;27.1
45789;BME280;31492;54.856;26.318;2023-02-17T19:06:10;1004.8;;;25.3;26.2
45789;BME280;31492;54.856;26.318;2023-02-17T19:11:30;1004.6;;;26.4;25.3
45789;BME280;31492;54.856;26.318;2023-02-17T19:16:11;1004.5;;;27.3;24.4
45789;BME280;31492;54.856;26.318;2023-02-17T19:21:10;1004.3;;;27.9;23.7
45789;BME280;31492;54.856;26.318;2023-02-17T19:26:10;1004.2;;;28.5;23.1
45789;BME280;31492;54.856;26.318;2023-02-17T19:31:38;1004;;;29;22.5
45789;BME280;31492;54.856;26.318;2023-02-17T19:36:12;1003.9;;;29.4;22
45789;BME280;31492;54.856;26.318;2023-02-17T19:41:11;1003.8;;;29.7;21.6
45789;BME280;31492;54.856;26.318;2023-02-17T19:46:52;1003.7;;;29.9;21.3
45789;BME280;31492;54.856;26.318;2023-02-17T19:51:16;1003.5;;;30.1;20.9
45789;BME280;31492;54.856;26.318;2023-02-17T19:56:24;1003.4;;;30.3;20.7
45789;BME280;31492;54.856;26.318;2023-02-17T20:01:24;1003.3;;;30.4;20.5
45789;BME280;31492;54.856;26.318;2023-02-17T20:06:10;1003.2;;;30.5;20.3
45789;BME280;31492;54.856;26.318;2023-02-17T20:11:10;1003.1;;;30.6;20.1
45789;BME280;31492;54.856;26.318;2023-02-17T20:16:16;1003;;;30.6;20
45789;BME280;31492;54.856;26.318;2023-02-17T20:21:23;1002.8;;;30.7;19.9
45789;BME280;31492;54.856;26.318;2023-02-17T20:26:17;1002.7;;;30.8;19.7
45789;BME280;31492;54.856;26.318;2023-02-17T20:31:16;1002.5;;;30.8;19.6
45789;BME280;31492;54.856;26.318;2023-02-17T20:36:24;1002.4;;;30.9;19.5
45789;BME280;31492;54.856;26.318;2023-02-17T20:41:16;1002.3;;;30.9;19.4
45789;BME280;31492;54.856;26.318;2023-02-17T20:46:36;1002.1;;;30.9;19.4
45789;BME280;31492;54.856;26.318;2023-02-17T20:51:44;1002;;;30.9;19.3
45789;BME280;31492;54.856;26.318;2023-02-17T20:56:10;1001.8;;;31;19.3
45789;BME280;31492;54.856;26.318;2023-02-17T21:02:00;1001.6;;;31;19.5
45789;BME280;31492;54.856;26.318;2023-02-17T21:06:18;1001.4;;;31;19.6
45789;BME280;31492;54.856;26.318;2023-02-17T21:11:10;1001.3;;;31;19.8
45789;BME280;31492;54.856;26.318;2023-02-17T21:16:10;1001.2;;;31;19.8
45789;BME280;31492;54.856;26.318;2023-02-17T21:21:10;1001;;;31;19.9
45789;BME280;31492;54.856;26.318;2023-02-17T21:26:38;1000.9;;;30.9;19.9
45789;BME280;31492;54.856;26.318;2023-02-17T21:31:22;1000.7;;;30.9;20
45789;BME280;31492;54.856;26.318;2023-02-17T21:36:24;1000.6;;;30.9;20
45789;BME280;31492;54.856;26.318;2023-02-17T21:41:17;1000.4;;;30.9;20
45789;BME280;31492;54.856;26.318;2023-02-17T21:46:30;1000.3;;;30.8;20
45789;BME280;31492;54.856;26.318;2023-02-17T21:51:10;1000.2;;;30.8;20
45789;BME280;31492;54.856;26.318;2023-02-17T21:56:22;1000;;;30.7;20
45789;BME280;31492;54.856;26.318;2023-02-17T22:01:24;999.9;;;30.6;20
45789;BME280;31492;54.856;26.318;2023-02-17T22:06:11;999.7;;;30.4;19.8
45789;BME280;31492;54.856;26.318;2023-02-17T22:11:23;999.6;;;30.2;19.6
45789;BME280;31492;54.856;26.318;2023-02-17T22:16:10;999.5;;;29.9;19.4
45789;BME280;31492;54.856;26.318;2023-02-17T22:21:16;999.5;;;27.9;19
45789;BME280;31492;54.856;26.318;2023-02-17T22:26:24;999.6;;;21.5;23.4
45789;BME280;31492;54.856;26.318;2023-02-17T22:31:30;999.7;;;16.7;28.5
45789;BME280;31492;54.856;26.318;2023-02-17T22:36:10;999.7;;;13.5;32.8
45789;BME280;31492;54.856;26.318;2023-02-17T22:41:50;999.6;;;11;37.1
45789;BME280;31492;54.856;26.318;2023-02-17T22:46:16;999.6;;;9.3;41
45789;BME280;31492;54.856;26.318;2023-02-17T22:51:26;999.5;;;7.9;44.6
45789;BME280;31492;54.856;26.318;2023-02-17T22:56:10;999.4;;;6.8;47.5
45789;BME280;31492;54.856;26.318;2023-02-17T23:01:17;999.3;;;6;50
45789;BME280;31492;54.856;26.318;2023-02-17T23:06:10;999.2;;;5.6;51.5
45789;BME280;31492;54.856;26.318;2023-02-17T23:11:11;999;;;5.1;54
45789;BME280;31492;54.856;26.318;2023-02-17T23:16:24;998.9;;;4.8;55.4
45789;BME280;31492;54.856;26.318;2023-02-17T23:21:16;998.8;;;4.5;56.2
45789;BME280;31492;54.856;26.318;2023-02-17T23:26:42;998.7;;;4.3;57.7
45789;BME280;31492;54.856;26.318;2023-02-17T23:31:10;998.6;;;4.1;59.1
45789;BME280;31492;54.856;26.318;2023-02-17T23:36:16;998.4;;;4;59.6
45789;BME280;31492;54.856;26.318;2023-02-17T23:41:36;998.3;;;3.9;60.6
45789;BME280;31492;54.856;26.318;2023-02-17T23:46:16;998.1;;;3.9;60.8
45789;BME280;31492;54.856;26.318;2023-02-17T23:51:10;998;;;3.8;61.7
45789;BME280;31492;54.856;26.318;2023-02-17T23:56:52;997.8;;;3.8;62.6
